createdAt,value
2023-03-31T00:00:54.348Z,273.77
2023-03-31T00:03:23.907Z,294.25
2023-03-31T00:05:58.294Z,278.48
2023-03-31T00:08:30.045Z,284.50
2023-03-31T00:11:00.102Z,272.10
2023-03-31T00:13:30.220Z,285.00
2023-03-31T00:15:58.952Z,266.63
2023-03-31T00:18:26.879Z,274.25
2023-03-31T00:20:55.145Z,267.98
2023-03-31T00:23:27.667Z,266.63
2023-03-31T00:25:56.319Z,274.13
2023-03-31T00:28:23.970Z,274.15
2023-03-31T00:30:53.498Z,291.17
2023-03-31T00:33:21.342Z,276.20
2023-03-31T00:35:52.432Z,275.98
2023-03-31T00:38:21.819Z,283.90
2023-03-31T00:40:53.348Z,273.73
2023-03-31T00:43:30.581Z,279.27
2023-03-31T00:46:17.903Z,264.77
2023-03-31T00:48:51.424Z,264.55
2023-03-31T00:51:21.095Z,267.55
2023-03-31T00:53:55.322Z,280.52
2023-03-31T00:56:23.173Z,262.65
2023-03-31T00:58:51.373Z,289.60
2023-03-31T01:01:25.283Z,275.42
2023-03-31T01:03:53.567Z,271.83
2023-03-31T01:06:21.333Z,289.88
2023-03-31T01:08:52.029Z,300.65
2023-03-31T01:11:26.172Z,296.13
2023-03-31T01:13:56.950Z,283.80
2023-03-31T01:16:25.891Z,289.35
2023-03-31T01:18:57.475Z,285.50
2023-03-31T01:22:00.119Z,268.92
2023-03-31T01:25:06.846Z,277.23
2023-03-31T01:27:54.936Z,257.83
2023-03-31T01:31:01.418Z,275.90
2023-03-31T01:33:52.522Z,266.42
2023-03-31T01:37:00.397Z,270.33
2023-03-31T01:40:13.321Z,261.80
2023-03-31T01:42:47.657Z,266.95
2023-03-31T01:45:27.059Z,270.95
2023-03-31T01:48:00.695Z,271.35
2023-03-31T01:50:32.343Z,275.88
2023-03-31T01:53:06.986Z,267.65
2023-03-31T01:55:40.182Z,278.50
2023-03-31T01:58:12.622Z,284.75
2023-03-31T02:00:46.686Z,268.52
2023-03-31T02:03:18.818Z,280.88
2023-03-31T02:05:50.289Z,279.05
2023-03-31T02:08:23.166Z,274.00
2023-03-31T02:10:54.604Z,288.40
2023-03-31T02:13:25.061Z,264.10
2023-03-31T02:15:57.738Z,270.88
2023-03-31T02:18:30.675Z,275.67
2023-03-31T02:21:00.691Z,265.45
2023-03-31T02:23:31.877Z,293.63
2023-03-31T02:26:05.190Z,261.02
2023-03-31T02:28:33.504Z,266.73
2023-03-31T02:31:14.715Z,272.30
2023-03-31T02:33:42.658Z,277.17
2023-03-31T02:36:10.791Z,276.85
2023-03-31T02:38:47.056Z,280.95
2023-03-31T02:41:16.048Z,267.80
2023-03-31T02:43:44.053Z,258.05
2023-03-31T02:46:11.935Z,265.75
2023-03-31T02:48:44.412Z,266.17
2023-03-31T02:52:00.517Z,279.88
2023-03-31T02:55:02.452Z,263.67
2023-03-31T02:57:54.747Z,265.17
2023-03-31T03:00:32.408Z,268.17
2023-03-31T03:03:17.049Z,290.33
2023-03-31T03:05:53.459Z,293.13
2023-03-31T03:08:59.541Z,277.33
2023-03-31T03:11:36.822Z,271.48
2023-03-31T03:14:14.262Z,303.48
2023-03-31T03:16:46.185Z,278.45
2023-03-31T03:19:21.302Z,296.05
2023-03-31T03:21:49.041Z,276.95
2023-03-31T03:24:17.915Z,285.48
2023-03-31T03:26:46.370Z,293.35
2023-03-31T03:29:15.503Z,278.05
2023-03-31T03:31:43.593Z,283.75
2023-03-31T03:34:11.507Z,285.35
2023-03-31T03:36:40.439Z,278.40
2023-03-31T03:39:09.124Z,270.13
2023-03-31T03:41:37.677Z,284.95
2023-03-31T03:44:05.973Z,278.30
2023-03-31T03:46:35.095Z,262.17
2023-03-31T03:49:02.971Z,264.90
2023-03-31T03:51:30.768Z,276.85
2023-03-31T03:53:58.386Z,253.23
2023-03-31T03:56:26.626Z,260.70
2023-03-31T03:58:54.377Z,267.65
2023-03-31T04:01:22.579Z,244.55
2023-03-31T04:03:51.573Z,265.25
2023-03-31T04:06:19.368Z,261.75
2023-03-31T04:08:47.048Z,276.00
2023-03-31T04:11:18.833Z,259.02
2023-03-31T04:13:47.738Z,267.08
2023-03-31T04:16:16.712Z,271.27
2023-03-31T04:18:44.527Z,271.13
2023-03-31T04:21:15.458Z,281.08
2023-03-31T04:23:46.543Z,274.02
2023-03-31T04:26:15.083Z,265.80
2023-03-31T04:28:50.554Z,277.95
2023-03-31T04:31:25.397Z,270.17
2023-03-31T04:33:54.001Z,267.42
2023-03-31T04:36:23.214Z,270.05
2023-03-31T04:38:54.638Z,266.80
2023-03-31T04:41:22.732Z,269.23
2023-03-31T04:43:50.772Z,258.40
2023-03-31T04:46:18.442Z,269.58
2023-03-31T04:48:46.202Z,271.00
2023-03-31T04:51:15.364Z,267.65
2023-03-31T04:53:44.381Z,263.92
2023-03-31T04:56:12.300Z,269.60
2023-03-31T04:58:40.245Z,275.35
2023-03-31T05:01:08.083Z,279.38
2023-03-31T05:03:36.023Z,277.88
2023-03-31T05:06:04.164Z,271.08
2023-03-31T05:08:32.307Z,280.42
2023-03-31T05:11:01.358Z,273.20
2023-03-31T05:13:29.001Z,262.15
2023-03-31T05:15:56.731Z,285.58
2023-03-31T05:18:24.398Z,288.15
2023-03-31T05:20:52.081Z,281.33
2023-03-31T05:23:19.729Z,298.60
2023-03-31T05:25:48.522Z,295.70
2023-03-31T05:28:17.513Z,280.40
2023-03-31T05:30:45.180Z,303.17
2023-03-31T05:33:13.061Z,276.95
2023-03-31T05:35:40.809Z,280.50
2023-03-31T05:38:08.414Z,305.83
2023-03-31T05:40:36.132Z,292.70
2023-03-31T05:43:03.713Z,278.50
2023-03-31T05:45:32.698Z,278.98
2023-03-31T05:48:00.500Z,278.83
2023-03-31T05:50:28.325Z,277.15
2023-03-31T05:52:55.965Z,272.67
2023-03-31T05:55:23.594Z,270.10
2023-03-31T05:57:51.213Z,268.67
2023-03-31T06:00:19.622Z,260.27
2023-03-31T06:02:48.749Z,279.67
2023-03-31T06:05:16.631Z,250.68
2023-03-31T06:07:44.447Z,260.50
2023-03-31T06:10:12.318Z,258.30
2023-03-31T06:12:39.906Z,262.17
2023-03-31T06:15:08.549Z,260.77
2023-03-31T06:17:38.349Z,277.07
2023-03-31T06:20:20.434Z,265.70
2023-03-31T06:22:54.483Z,273.00
2023-03-31T06:25:22.200Z,284.47
2023-03-31T06:27:49.814Z,271.80
2023-03-31T06:30:17.687Z,269.13
2023-03-31T06:32:45.341Z,278.17
2023-03-31T06:35:14.779Z,271.45
2023-03-31T06:37:42.455Z,276.10
2023-03-31T06:40:11.246Z,271.13
2023-03-31T06:42:38.945Z,279.27
2023-03-31T06:45:07.388Z,276.67
2023-03-31T06:47:35.121Z,283.90
2023-03-31T06:50:02.858Z,256.10
2023-03-31T06:52:32.193Z,270.67
2023-03-31T06:55:00.988Z,286.13
2023-03-31T06:57:28.831Z,286.63
2023-03-31T06:59:56.797Z,276.33
2023-03-31T07:02:24.408Z,278.63
2023-03-31T07:04:52.228Z,295.45
2023-03-31T07:07:19.932Z,284.35
2023-03-31T07:09:48.913Z,275.98
2023-03-31T07:12:16.558Z,278.33
2023-03-31T07:14:44.202Z,287.80
2023-03-31T07:17:11.833Z,286.85
2023-03-31T07:19:41.830Z,279.95
2023-03-31T07:22:09.515Z,263.20
2023-03-31T07:24:37.245Z,284.98
2023-03-31T07:27:06.469Z,282.30
2023-03-31T07:29:34.130Z,280.27
2023-03-31T07:32:01.903Z,282.15
2023-03-31T07:34:29.946Z,284.77
2023-03-31T07:36:57.626Z,283.35
2023-03-31T07:39:25.585Z,281.50
2023-03-31T07:41:53.215Z,280.85
2023-03-31T07:44:23.368Z,276.05
2023-03-31T07:46:51.066Z,279.40
2023-03-31T07:49:18.761Z,272.90
2023-03-31T07:51:46.409Z,290.02
2023-03-31T07:54:14.047Z,294.13
2023-03-31T07:56:41.677Z,292.90
2023-03-31T07:59:09.852Z,281.63
2023-03-31T08:01:38.867Z,283.70
2023-03-31T08:04:06.775Z,297.38
2023-03-31T08:06:34.480Z,296.02
2023-03-31T08:09:02.141Z,313.02
2023-03-31T08:11:30.482Z,289.13
2023-03-31T08:13:58.214Z,278.73
2023-03-31T08:16:25.943Z,288.98
2023-03-31T08:18:55.110Z,282.17
2023-03-31T08:21:24.597Z,285.65
2023-03-31T08:23:54.789Z,292.60
2023-03-31T08:26:24.270Z,280.10
2023-03-31T08:28:52.605Z,285.50
2023-03-31T08:31:25.326Z,306.73
2023-03-31T08:33:56.211Z,287.42
2023-03-31T08:36:23.917Z,275.13
2023-03-31T08:38:51.654Z,304.30
2023-03-31T08:41:31.252Z,309.25
2023-03-31T08:44:01.925Z,299.02
2023-03-31T08:46:33.444Z,305.98
2023-03-31T08:49:05.244Z,304.08
2023-03-31T08:51:37.954Z,303.58
2023-03-31T08:54:08.965Z,309.27
2023-03-31T08:56:40.306Z,302.70
2023-03-31T08:59:19.291Z,285.08
2023-03-31T09:01:56.255Z,291.90
2023-03-31T09:04:51.339Z,286.02
2023-03-31T09:07:23.124Z,265.45
2023-03-31T09:09:59.164Z,294.25
2023-03-31T09:12:36.247Z,285.80
2023-03-31T09:15:07.207Z,293.38
2023-03-31T09:17:39.734Z,299.42
2023-03-31T09:20:16.985Z,308.10
2023-03-31T09:22:48.019Z,293.45
2023-03-31T09:25:19.398Z,292.20
2023-03-31T09:27:47.731Z,272.33
2023-03-31T09:30:20.120Z,279.42
2023-03-31T09:32:51.178Z,280.63
2023-03-31T09:35:22.553Z,267.37
2023-03-31T09:37:51.658Z,255.63
2023-03-31T09:40:21.376Z,270.33
2023-03-31T09:42:55.384Z,253.20
2023-03-31T09:45:23.160Z,255.30
2023-03-31T09:47:54.293Z,276.33
2023-03-31T09:50:26.395Z,277.13
2023-03-31T09:52:57.605Z,279.40
2023-03-31T09:55:39.654Z,276.27
2023-03-31T09:58:09.389Z,279.57
2023-03-31T10:00:37.428Z,283.40
2023-03-31T10:03:07.753Z,288.97
2023-03-31T10:05:40.021Z,272.30
2023-03-31T10:08:30.229Z,290.07
2023-03-31T10:11:08.225Z,278.60
2023-03-31T10:13:42.702Z,282.10
2023-03-31T10:16:13.924Z,282.77
2023-03-31T10:18:44.285Z,298.10
2023-03-31T10:21:23.528Z,288.30
2023-03-31T10:23:52.013Z,277.00
2023-03-31T10:26:22.388Z,283.23
2023-03-31T10:28:52.942Z,287.80
2023-03-31T10:31:22.452Z,276.70
2023-03-31T10:33:52.398Z,293.47
2023-03-31T10:36:25.205Z,288.55
2023-03-31T10:38:54.441Z,271.90
2023-03-31T10:41:24.868Z,294.15
2023-03-31T10:43:54.045Z,290.52
2023-03-31T10:46:22.684Z,289.60
2023-03-31T10:48:52.378Z,286.13
2023-03-31T10:51:27.015Z,292.77
2023-03-31T10:53:57.001Z,304.52
2023-03-31T10:56:40.937Z,298.80
2023-03-31T10:59:32.537Z,299.95
2023-03-31T11:02:23.919Z,282.08
2023-03-31T11:05:01.876Z,278.58
2023-03-31T11:07:41.650Z,266.88
2023-03-31T11:10:27.903Z,278.55
2023-03-31T11:13:01.418Z,274.20
2023-03-31T11:15:36.681Z,281.00
2023-03-31T11:18:17.531Z,270.63
2023-03-31T11:20:57.390Z,289.52
2023-03-31T11:23:38.579Z,274.35
2023-03-31T11:26:11.760Z,257.75
2023-03-31T11:28:52.058Z,277.52
2023-03-31T11:31:34.039Z,290.20
2023-03-31T11:34:14.799Z,291.52
2023-03-31T11:37:02.526Z,287.83
2023-03-31T11:39:44.497Z,274.45
2023-03-31T11:42:17.577Z,277.85
2023-03-31T11:44:52.954Z,275.92
2023-03-31T11:47:24.174Z,278.45
2023-03-31T11:49:56.349Z,301.92
2023-03-31T11:52:30.439Z,304.23
2023-03-31T11:55:04.850Z,294.17
2023-03-31T11:57:37.225Z,304.52
2023-03-31T12:00:12.808Z,304.98
2023-03-31T12:02:48.208Z,276.88
2023-03-31T12:05:18.375Z,304.58
2023-03-31T12:07:51.780Z,273.50
2023-03-31T12:10:23.375Z,287.67
2023-03-31T12:12:56.782Z,288.42
2023-03-31T12:15:30.380Z,279.65
2023-03-31T12:18:02.668Z,274.17
2023-03-31T12:20:34.316Z,278.30
2023-03-31T12:23:06.323Z,278.55
2023-03-31T12:25:48.545Z,274.60
2023-03-31T12:28:18.036Z,297.08
2023-03-31T12:30:48.737Z,292.10
2023-03-31T12:33:21.203Z,317.60
2023-03-31T12:36:03.949Z,307.23
2023-03-31T12:38:49.351Z,288.38
2023-03-31T12:41:24.769Z,268.17
2023-03-31T12:44:11.868Z,284.25
2023-03-31T12:47:06.047Z,282.52
2023-03-31T12:49:44.694Z,271.25
2023-03-31T12:52:18.969Z,284.13
2023-03-31T12:55:12.418Z,258.50
2023-03-31T12:57:41.554Z,253.73
2023-03-31T13:00:26.918Z,288.00
2023-03-31T13:03:28.458Z,297.88
2023-03-31T13:05:56.137Z,302.35
2023-03-31T13:08:56.060Z,264.42
2023-03-31T13:11:37.401Z,266.83
2023-03-31T13:14:13.858Z,281.70
2023-03-31T13:16:41.656Z,290.05
2023-03-31T13:19:13.465Z,278.38
2023-03-31T13:21:54.854Z,288.05
2023-03-31T13:24:23.002Z,276.85
2023-03-31T13:26:54.102Z,275.50
2023-03-31T13:29:26.382Z,282.52
2023-03-31T13:32:20.803Z,276.80
2023-03-31T13:34:57.009Z,277.30
2023-03-31T13:37:38.530Z,262.13
2023-03-31T13:40:17.859Z,252.57
2023-03-31T13:43:23.709Z,264.25
2023-03-31T13:46:17.156Z,262.90
2023-03-31T13:48:52.878Z,263.70
2023-03-31T13:51:43.200Z,274.98
2023-03-31T13:54:41.257Z,267.02
2023-03-31T13:57:39.913Z,254.27
2023-03-31T14:00:31.422Z,277.40
2023-03-31T14:03:25.875Z,266.85
2023-03-31T14:05:59.293Z,270.75
2023-03-31T14:08:39.295Z,265.92
2023-03-31T14:11:23.958Z,267.20
2023-03-31T14:14:06.182Z,260.17
2023-03-31T14:16:38.645Z,266.00
2023-03-31T14:19:33.908Z,269.48
2023-03-31T14:22:10.516Z,252.57
2023-03-31T14:24:45.360Z,272.33
2023-03-31T14:27:26.382Z,270.35
2023-03-31T14:30:01.037Z,267.88
2023-03-31T14:32:36.902Z,273.63
2023-03-31T14:35:23.687Z,272.10
2023-03-31T14:37:51.518Z,274.10
2023-03-31T14:40:20.092Z,268.25
2023-03-31T14:42:50.363Z,266.08
2023-03-31T14:45:20.617Z,274.02
2023-03-31T14:47:56.018Z,274.20
2023-03-31T14:50:33.029Z,270.67
2023-03-31T14:53:01.389Z,261.50
2023-03-31T14:55:44.205Z,274.05
2023-03-31T14:58:27.750Z,265.90
2023-03-31T15:00:55.925Z,257.73
2023-03-31T15:03:26.090Z,270.52
2023-03-31T15:05:58.648Z,265.77
2023-03-31T15:08:27.883Z,279.92
2023-03-31T15:11:02.338Z,274.33
2023-03-31T15:13:46.896Z,273.85
2023-03-31T15:16:29.945Z,262.08
2023-03-31T15:18:59.063Z,264.52
2023-03-31T15:21:29.587Z,289.83
2023-03-31T15:23:57.312Z,279.50
2023-03-31T15:26:40.293Z,277.73
2023-03-31T15:29:13.889Z,263.25
2023-03-31T15:31:41.991Z,265.70
2023-03-31T15:34:16.050Z,259.08
2023-03-31T15:36:45.888Z,260.45
2023-03-31T15:39:15.486Z,250.43
2023-03-31T15:41:43.474Z,260.52
2023-03-31T15:44:29.970Z,271.20
2023-03-31T15:47:01.715Z,259.23
2023-03-31T15:49:30.483Z,275.88
2023-03-31T15:52:01.287Z,291.48
2023-03-31T15:54:36.811Z,294.48
2023-03-31T15:57:06.608Z,301.42
2023-03-31T15:59:55.500Z,301.67
2023-03-31T16:02:26.476Z,301.85
2023-03-31T16:04:57.747Z,304.35
2023-03-31T16:07:30.399Z,296.45
2023-03-31T16:10:03.218Z,282.63
2023-03-31T16:12:36.310Z,293.35
2023-03-31T16:15:08.406Z,286.35
2023-03-31T16:17:39.653Z,271.98
2023-03-31T16:20:12.057Z,284.38
2023-03-31T16:22:44.560Z,270.50
2023-03-31T16:25:15.360Z,276.42
2023-03-31T16:27:46.668Z,292.05
2023-03-31T16:30:16.773Z,277.17
2023-03-31T16:33:02.487Z,272.35
2023-03-31T16:35:36.802Z,297.55
2023-03-31T16:38:06.117Z,260.77
2023-03-31T16:40:37.380Z,282.95
2023-03-31T16:43:12.726Z,288.40
2023-03-31T16:45:40.763Z,295.38
2023-03-31T16:48:16.425Z,286.60
2023-03-31T16:50:45.981Z,294.63
2023-03-31T16:53:16.267Z,285.30
2023-03-31T16:55:44.238Z,286.98
2023-03-31T16:58:11.977Z,298.00
2023-03-31T17:00:40.330Z,294.80
2023-03-31T17:03:09.848Z,283.30
2023-03-31T17:05:39.880Z,271.48
2023-03-31T17:08:08.292Z,281.80
2023-03-31T17:10:38.228Z,285.95
2023-03-31T17:13:06.694Z,282.98
2023-03-31T17:15:36.628Z,289.05
2023-03-31T17:18:05.116Z,288.40
2023-03-31T17:20:34.162Z,296.60
2023-03-31T17:23:02.304Z,293.05
2023-03-31T17:25:30.524Z,299.42
2023-03-31T17:28:00.567Z,280.42
2023-03-31T17:30:28.556Z,287.83
2023-03-31T17:32:56.383Z,281.83
2023-03-31T17:35:24.543Z,273.80
2023-03-31T17:37:53.791Z,287.40
2023-03-31T17:40:22.375Z,280.70
2023-03-31T17:42:50.117Z,281.23
2023-03-31T17:45:19.342Z,283.90
2023-03-31T17:47:47.021Z,268.25
2023-03-31T17:50:14.685Z,259.00
2023-03-31T17:52:42.256Z,267.65
2023-03-31T17:55:10.731Z,276.95
2023-03-31T17:57:40.217Z,254.45
2023-03-31T18:00:09.902Z,259.02
2023-03-31T18:02:39.349Z,243.38
2023-03-31T18:05:08.301Z,244.27
2023-03-31T18:07:36.740Z,247.27
2023-03-31T18:10:06.223Z,249.63
2023-03-31T18:12:34.875Z,267.45
2023-03-31T18:15:03.926Z,243.27
2023-03-31T18:17:31.740Z,249.57
2023-03-31T18:20:00.730Z,235.63
2023-03-31T18:22:28.745Z,251.55
2023-03-31T18:24:56.458Z,240.75
2023-03-31T18:27:25.241Z,253.45
2023-03-31T18:29:53.230Z,253.63
2023-03-31T18:32:21.228Z,254.90
2023-03-31T18:34:49.224Z,248.07
2023-03-31T18:37:18.313Z,247.93
2023-03-31T18:39:46.269Z,256.07
2023-03-31T18:42:13.930Z,240.88
2023-03-31T18:44:41.580Z,234.73
2023-03-31T18:47:09.258Z,238.30
2023-03-31T18:49:36.902Z,240.10
2023-03-31T18:52:05.470Z,248.93
2023-03-31T18:54:34.500Z,240.48
2023-03-31T18:57:02.867Z,243.25
2023-03-31T18:59:30.620Z,223.60
2023-03-31T19:01:58.332Z,233.77
2023-03-31T19:04:26.946Z,235.80
2023-03-31T19:06:55.857Z,247.05
2023-03-31T19:09:26.020Z,247.17
2023-03-31T19:11:54.988Z,247.25
2023-03-31T19:14:22.744Z,249.97
2023-03-31T19:16:50.525Z,257.97
2023-03-31T19:19:18.182Z,253.10
2023-03-31T19:21:45.897Z,242.68
2023-03-31T19:24:13.611Z,259.23
2023-03-31T19:26:41.336Z,262.60
2023-03-31T19:29:10.479Z,255.10
2023-03-31T19:31:40.470Z,265.37
2023-03-31T19:34:11.475Z,257.23
2023-03-31T19:36:40.140Z,263.15
2023-03-31T19:39:08.029Z,271.80
2023-03-31T19:41:36.432Z,265.70
2023-03-31T19:44:04.187Z,251.73
2023-03-31T19:46:33.245Z,267.07
2023-03-31T19:49:01.359Z,254.77
2023-03-31T19:51:29.137Z,267.67
2023-03-31T19:53:57.391Z,266.07
2023-03-31T19:56:26.976Z,268.40
2023-03-31T19:58:54.739Z,257.83
2023-03-31T20:01:25.912Z,258.47
2023-03-31T20:03:55.951Z,258.83
2023-03-31T20:06:25.682Z,268.42
2023-03-31T20:08:55.366Z,257.60
2023-03-31T20:11:24.253Z,273.70
2023-03-31T20:13:52.007Z,265.20
2023-03-31T20:16:21.305Z,262.30
2023-03-31T20:18:53.226Z,270.17
2023-03-31T20:21:24.406Z,264.43
2023-03-31T20:23:52.027Z,264.70
2023-03-31T20:26:21.446Z,277.17
2023-03-31T20:28:49.177Z,280.03
2023-03-31T20:31:19.183Z,273.27
2023-03-31T20:33:47.865Z,268.88
2023-03-31T20:36:18.068Z,252.13
2023-03-31T20:38:48.367Z,258.67
2023-03-31T20:41:16.845Z,266.38
2023-03-31T20:43:45.124Z,259.63
2023-03-31T20:46:12.926Z,261.90
2023-03-31T20:48:42.978Z,252.47
2023-03-31T20:51:12.720Z,254.00
2023-03-31T20:53:42.824Z,254.33
2023-03-31T20:56:13.870Z,226.63
2023-03-31T20:58:44.229Z,237.15
2023-03-31T21:01:13.105Z,245.30
2023-03-31T21:03:42.196Z,220.60
2023-03-31T21:06:14.373Z,250.17
2023-03-31T21:08:45.287Z,247.43
2023-03-31T21:11:14.885Z,248.40
2023-03-31T21:13:44.653Z,223.90
2023-03-31T21:16:13.048Z,243.90
2023-03-31T21:18:40.759Z,256.77
2023-03-31T21:21:10.179Z,255.37
2023-03-31T21:23:37.978Z,267.70
2023-03-31T21:26:08.214Z,256.47
2023-03-31T21:28:39.012Z,264.13
2023-03-31T21:31:09.009Z,245.17
2023-03-31T21:33:39.329Z,266.13
2023-03-31T21:36:09.419Z,258.17
2023-03-31T21:38:37.797Z,254.83
2023-03-31T21:41:07.355Z,264.40
2023-03-31T21:43:37.228Z,271.47
2023-03-31T21:46:04.919Z,252.90
2023-03-31T21:48:33.255Z,285.83
2023-03-31T21:51:02.753Z,265.40
2023-03-31T21:53:32.034Z,281.53
2023-03-31T21:56:00.232Z,255.50
2023-03-31T21:58:29.995Z,266.50
2023-03-31T22:01:01.114Z,265.77
2023-03-31T22:03:31.996Z,270.03
2023-03-31T22:06:00.793Z,277.13
2023-03-31T22:08:29.527Z,283.63
2023-03-31T22:10:58.267Z,272.23
2023-03-31T22:13:25.993Z,259.53
2023-03-31T22:15:54.494Z,254.97
2023-03-31T22:18:23.730Z,262.37
2023-03-31T22:20:51.623Z,263.77
2023-03-31T22:23:20.511Z,263.33
2023-03-31T22:25:48.553Z,245.53
2023-03-31T22:28:17.056Z,256.43
2023-03-31T22:30:44.930Z,254.57
2023-03-31T22:33:12.731Z,258.37
2023-03-31T22:35:41.726Z,266.13
2023-03-31T22:38:09.413Z,260.57
2023-03-31T22:40:37.156Z,279.47
2023-03-31T22:43:05.033Z,276.80
2023-03-31T22:45:32.978Z,255.73
2023-03-31T22:48:00.914Z,270.03
2023-03-31T22:50:28.610Z,260.37
2023-03-31T22:52:57.661Z,269.00
2023-03-31T22:55:25.418Z,251.73
2023-03-31T22:57:53.064Z,253.40
2023-03-31T23:00:20.850Z,269.13
2023-03-31T23:02:48.533Z,268.47
2023-03-31T23:05:16.855Z,265.27
2023-03-31T23:07:44.732Z,250.20
2023-03-31T23:10:13.834Z,249.77
2023-03-31T23:12:44.603Z,245.93
2023-03-31T23:15:12.936Z,271.57
2023-03-31T23:17:40.814Z,263.70
2023-03-31T23:20:09.197Z,265.93
2023-03-31T23:22:36.891Z,266.50
2023-03-31T23:25:05.151Z,272.57
2023-03-31T23:27:34.190Z,253.63
2023-03-31T23:30:01.830Z,250.40
2023-03-31T23:32:29.496Z,271.73
2023-03-31T23:34:57.173Z,258.33
2023-03-31T23:37:24.801Z,240.50
2023-03-31T23:39:52.695Z,263.67
2023-03-31T23:42:20.800Z,253.73
2023-03-31T23:44:49.787Z,251.63
2023-03-31T23:47:17.578Z,268.40
2023-03-31T23:49:45.534Z,262.90
2023-03-31T23:52:14.024Z,247.23
2023-03-31T23:54:42.200Z,257.70
2023-03-31T23:57:09.912Z,258.53
2023-03-31T23:59:37.728Z,264.73
